Pleasantville, Ohio
Current Conditions -  °F | °C
As of 3:53 AM on Wednesday 28 Jan 2015 (Local Time) from KLHQ Reporting Station
Haze Haze  
Wind Chill:   Ceiling: Unl
Heat Index:   Visibility: 6mi
Dew Point: -3°   Wind: 0mph
Humidity: 80%   Direction: NA
Pressure: 30.26"   Gusts: NA
Location:  39.81°N, 82.52°W
Report Text: KLHQ 280853Z AUTO 00000KT 6SM HZ CLR M17/M19 A3026 RMK AO2 SLP262 I1000 I3000 T11671194 51010
Loading
Personal Weather Stations






























Interactive Weather Map New forecast layout! Learn more

10-Day Weather Forecast

Advertisements
Track Severe Weather on mobile